Time;durP1;ratioP1;P1;durP2;ratioP2;P2;SDS_P1;SDS_P2;PMS_P1;PMS_P2;Temp;Humidity;BMP_temperature;BMP_pressure;BME280_temperature;BME280_humidity;BME280_pressure;Samples;Min_cycle;Max_cycle;Signal;HPM_P1;HPM_P2
2022/06/29 02:36:23;;;;;;;2.95;2.10;;;;;;;14.92;100.00;100737.22;5947213;23;20094;-96
2022/06/29 02:39:34;;;;;;;2.97;1.90;;;;;;;14.93;100.00;100739.69;5997266;29;20053;-96
2022/06/29 02:42:50;;;;;;;2.72;1.83;;;;;;;14.91;100.00;100735.59;5998449;29;20134;-96
2022/06/29 02:46:20;;;;;;;;;;;;;;;;;;;;;
2022/06/29 02:49:46;;;;;;;2.78;2.08;;;;;;;14.81;100.00;100733.84;6011493;29;20069;-96
2022/06/29 02:53:09;;;;;;;2.33;1.80;;;;;;;14.77;100.00;100731.66;6000239;29;20532;-96
2022/06/29 02:56:16;;;;;;;3.15;1.95;;;;;;;14.73;100.00;100735.50;5998843;29;20046;-96
2022/06/29 02:59:30;;;;;;;2.17;1.63;;;;;;;14.68;100.00;100733.31;5984641;29;20065;-96
2022/06/29 03:02:39;;;;;;;2.00;1.80;;;;;;;14.59;100.00;100723.78;5997084;29;20050;-96
2022/06/29 03:05:46;;;;;;;3.90;1.75;;;;;;;14.52;100.00;100728.69;5995811;29;20551;-96
2022/06/29 03:08:52;;;;;;;3.25;2.00;;;;;;;14.50;100.00;100730.59;6011007;29;20050;-96
2022/06/29 03:12:03;;;;;;;2.10;1.90;;;;;;;14.52;100.00;100733.09;5998702;29;20068;-96
2022/06/29 03:15:07;;;;;;;3.42;1.90;;;;;;;14.53;100.00;100729.50;5998227;29;20073;-96
2022/06/29 03:18:21;;;;;;;2.22;1.83;;;;;;;14.55;100.00;100732.81;5996314;29;20061;-96
2022/06/29 03:21:33;;;;;;;2.25;1.77;;;;;;;14.56;100.00;100729.28;5990720;29;20034;-96
2022/06/29 03:24:40;;;;;;;2.60;1.90;;;;;;;14.53;100.00;100737.31;5998613;29;20050;-96
2022/06/29 03:27:44;;;;;;;2.80;2.00;;;;;;;14.48;100.00;100735.13;5998912;29;20057;-96
2022/06/29 03:30:48;;;;;;;2.53;1.80;;;;;;;14.47;100.00;100735.28;5996791;29;20530;-96
2022/06/29 03:33:51;;;;;;;2.50;1.80;;;;;;;14.41;100.00;100734.09;5992628;29;20057;-96
2022/06/29 03:36:56;;;;;;;3.33;1.83;;;;;;;14.50;100.00;100722.78;5988762;29;20522;-96
2022/06/29 03:40:05;;;;;;;3.13;1.80;;;;;;;14.61;100.00;100716.63;5997117;29;20042;-96
2022/06/29 03:43:08;;;;;;;2.20;1.85;;;;;;;14.71;100.00;100722.63;6011424;29;20138;-96
2022/06/29 03:46:24;;;;;;;4.50;2.30;;;;;;;14.81;100.00;100712.97;5989651;29;20529;-96
2022/06/29 03:50:32;;;;;;;2.38;1.90;;;;;;;14.96;100.00;100720.34;6014424;29;20045;-96
2022/06/29 03:54:11;;;;;;;2.55;1.70;;;;;;;15.07;100.00;100710.50;5993541;29;20062;-96
2022/06/29 03:58:56;;;;;;;2.67;1.80;;;;;;;15.16;100.00;100710.63;5999071;29;20058;-96
2022/06/29 04:03:09;;;;;;;2.78;2.00;;;;;;;15.26;100.00;100716.59;5980964;29;20076;-96
2022/06/29 04:07:46;;;;;;;2.40;1.77;;;;;;;15.33;100.00;100714.19;6001208;29;20592;-96
2022/06/29 04:40:03;;;;;;;;;;;;;;;;;;;;;
2022/06/29 05:07:53;;;;;;;4.10;2.63;;;;;;;15.99;100.00;100711.22;2359700;27;20046;-96
2022/06/29 07:12:49;;;;;;;5.45;3.53;;;;;;;19.58;80.83;100686.09;5906633;30;20060;-96
2022/06/29 07:17:23;;;;;;;;;;;;;;;;;;;;;
2022/06/29 07:21:35;;;;;;;4.55;3.60;;;;;;;20.03;79.09;100688.03;5874419;30;20063;-96
2022/06/29 07:26:28;;;;;;;;;;;;;;;;;;;;;
2022/06/29 07:30:07;;;;;;;5.55;3.53;;;;;;;20.48;78.63;100675.72;5919884;29;20601;-96
2022/06/29 07:33:57;;;;;;;5.82;3.75;;;;;;;20.76;77.17;100679.34;5866290;30;20063;-95
2022/06/29 07:37:12;;;;;;;5.43;3.90;;;;;;;20.95;76.93;100677.94;5872051;30;20056;-95
2022/06/29 07:40:23;;;;;;;5.00;3.35;;;;;;;21.06;75.65;100684.53;5870306;30;20077;-95
2022/06/29 07:44:11;;;;;;;5.07;3.25;;;;;;;21.19;76.96;100689.97;5882236;30;21296;-96
2022/06/29 07:47:36;;;;;;;4.43;3.08;;;;;;;21.42;76.13;100679.25;5937100;29;20058;-96
2022/06/29 07:51:38;;;;;;;4.68;3.75;;;;;;;21.64;75.49;100677.44;5988229;24;20065;-96
2022/06/29 08:04:39;;;;;;;5.03;3.45;;;;;;;22.39;73.07;100671.69;4020948;23;20057;-96
2022/06/29 08:12:47;;;;;;;4.18;3.33;;;;;;;22.37;74.15;100661.31;6019279;24;20061;-96
2022/06/29 08:20:25;;;;;;;5.85;2.92;;;;;;;22.45;75.96;100650.59;5947203;29;20055;-96
2022/06/29 08:23:38;;;;;;;7.15;3.28;;;;;;;22.67;74.23;100647.84;5940943;29;20077;-96
2022/06/29 08:27:04;;;;;;;7.60;3.65;;;;;;;22.82;75.49;100647.69;5939044;29;20338;-96
2022/06/29 08:30:42;;;;;;;4.38;3.22;;;;;;;22.98;76.02;100645.53;5924573;29;20136;-96
2022/06/29 08:33:54;;;;;;;3.75;2.92;;;;;;;23.19;71.32;100641.91;5943313;29;20051;-96
2022/06/29 08:37:01;;;;;;;4.25;3.13;;;;;;;23.30;70.69;100643.13;5930416;29;20529;-96
2022/06/29 08:40:06;;;;;;;5.40;3.03;;;;;;;23.43;69.83;100635.22;5929187;29;20479;-96
2022/06/29 08:43:11;;;;;;;3.08;2.75;;;;;;;23.57;71.48;100641.31;5922972;29;20051;-96
2022/06/29 08:46:14;;;;;;;3.70;3.40;;;;;;;23.74;69.36;100633.00;5936887;29;20055;-96
2022/06/29 08:49:17;;;;;;;5.53;3.13;;;;;;;23.89;68.18;100635.41;5928866;29;20048;-96
2022/06/29 08:52:23;;;;;;;4.32;2.90;;;;;;;24.04;66.83;100628.06;5927759;29;20537;-96
2022/06/29 08:55:26;;;;;;;4.43;3.00;;;;;;;24.18;66.26;100640.22;5942828;29;20116;-96
2022/06/29 08:58:43;;;;;;;4.80;3.47;;;;;;;24.29;64.73;100636.91;5945313;29;20054;-96
2022/06/29 09:01:59;;;;;;;4.95;2.78;;;;;;;24.39;66.41;100631.19;5921818;29;20815;-96
2022/06/29 09:05:01;;;;;;;3.10;2.90;;;;;;;24.43;66.27;100636.91;5932699;29;20090;-89
2022/06/29 09:08:03;;;;;;;7.05;3.05;;;;;;;24.55;65.10;100631.78;5926074;29;20058;-90
2022/06/29 09:11:31;;;;;;;3.80;3.00;;;;;;;24.59;62.65;100633.78;5924921;29;20047;-89
2022/06/29 09:14:33;;;;;;;3.35;3.05;;;;;;;24.77;65.12;100634.91;5932343;29;20570;-90
2022/06/29 09:17:36;;;;;;;3.20;3.00;;;;;;;24.89;64.33;100633.22;5930281;29;20051;-89
2022/06/29 09:20:40;;;;;;;3.35;2.70;;;;;;;24.92;62.74;100632.81;5929733;29;20047;-89
2022/06/29 09:23:47;;;;;;;4.18;3.08;;;;;;;25.20;59.98;100639.59;5929548;29;20055;-89
2022/06/29 09:27:00;;;;;;;3.05;2.78;;;;;;;25.57;57.55;100628.06;5930520;29;20054;-90
2022/06/29 09:30:03;;;;;;;4.10;3.20;;;;;;;25.87;55.92;100634.56;5930682;29;20391;-89
2022/06/29 09:33:07;;;;;;;3.65;3.10;;;;;;;26.10;54.40;100633.91;5930031;29;20042;-89
2022/06/29 09:36:17;;;;;;;3.42;3.13;;;;;;;26.34;53.78;100634.84;5921171;29;20751;-89
2022/06/29 09:39:32;;;;;;;4.82;3.03;;;;;;;26.70;52.95;100626.03;5924116;29;20528;-89
2022/06/29 09:42:34;;;;;;;3.30;3.00;;;;;;;26.95;50.37;100623.22;5924492;29;20093;-90
2022/06/29 09:45:37;;;;;;;3.05;2.78;;;;;;;27.07;50.99;100629.38;5944350;29;20421;-90
2022/06/29 09:48:40;;;;;;;3.45;3.15;;;;;;;27.14;50.46;100623.16;5927071;29;20043;-89
2022/06/29 09:51:42;;;;;;;3.63;3.33;;;;;;;27.12;50.34;100615.41;5922197;29;20063;-90
2022/06/29 09:54:55;;;;;;;4.72;3.40;;;;;;;27.14;51.88;100626.63;5927461;29;20240;-90
2022/06/29 09:57:58;;;;;;;3.70;3.40;;;;;;;27.21;50.83;100618.56;5927104;29;20043;-90
2022/06/29 10:04:24;;;;;;;4.22;3.42;;;;;;;27.19;50.09;100607.38;5926524;29;20043;-86
2022/06/29 10:07:28;;;;;;;4.57;3.30;;;;;;;27.24;50.14;100607.47;5924497;29;20395;-85
2022/06/29 10:10:31;;;;;;;3.88;3.40;;;;;;;27.19;49.51;100610.03;5922028;29;20048;-85
2022/06/29 10:13:43;;;;;;;5.10;3.55;;;;;;;27.11;52.09;100608.47;5926824;29;20128;-87
2022/06/29 10:16:52;;;;;;;3.92;3.45;;;;;;;27.25;51.45;100601.13;5925181;29;20096;-89
2022/06/29 10:20:25;;;;;;;4.40;3.42;;;;;;;27.41;50.87;100604.97;5938837;29;20059;-90
2022/06/29 10:23:45;;;;;;;8.57;5.30;;;;;;;27.57;51.42;100596.28;5926317;29;20058;-86
2022/06/29 10:26:48;;;;;;;4.88;4.20;;;;;;;27.56;50.02;100605.31;5944679;29;20073;-87
2022/06/29 10:29:50;;;;;;;4.10;3.17;;;;;;;27.49;48.15;100610.72;5927039;29;20054;-87
2022/06/29 10:32:52;;;;;;;6.57;5.68;;;;;;;27.48;47.63;100603.00;5928878;29;20062;-87
2022/06/29 10:36:09;;;;;;;4.88;4.35;;;;;;;27.58;49.96;100607.75;5923989;29;20107;-87
2022/06/29 10:39:11;;;;;;;4.93;4.43;;;;;;;27.62;48.86;100607.03;5920630;29;20047;-87
2022/06/29 10:45:47;;;;;;;3.83;3.53;;;;;;;27.83;48.87;100610.19;5926504;29;20231;-87
2022/06/29 10:49:20;;;;;;;4.28;3.50;;;;;;;27.92;47.66;100611.41;5930011;29;20051;-87
2022/06/29 10:52:22;;;;;;;3.55;3.10;;;;;;;28.03;46.41;100605.28;5929956;29;20429;-88
2022/06/29 10:55:31;;;;;;;7.75;4.00;;;;;;;28.06;47.93;100601.34;5926058;29;20173;-88
2022/06/29 10:58:34;;;;;;;3.70;3.38;;;;;;;27.95;47.95;100602.16;5932807;29;20050;-88
2022/06/29 11:01:36;;;;;;;4.95;4.13;;;;;;;27.86;48.87;100594.53;5924366;29;20052;-87
2022/06/29 11:04:40;;;;;;;4.30;3.67;;;;;;;28.08;48.53;100597.41;5923706;29;20100;-88
2022/06/29 11:17:48;;;;;;;3.42;3.08;;;;;;;29.08;44.97;100587.25;5929400;29;20054;-87
2022/06/29 11:20:51;;;;;;;4.13;3.67;;;;;;;29.09;44.93;100588.03;5946969;29;20065;-87
2022/06/29 11:24:07;;;;;;;4.03;3.63;;;;;;;28.94;45.65;100585.91;5929282;29;20062;-88
2022/06/29 11:27:29;;;;;;;5.65;3.88;;;;;;;28.81;45.22;100595.03;5929473;29;20071;-87
2022/06/29 11:30:31;;;;;;;3.95;3.55;;;;;;;28.65;46.78;100582.50;5925229;29;20078;-88
2022/06/29 11:33:41;;;;;;;3.80;3.50;;;;;;;28.49;47.13;100582.22;5928765;29;20047;-88
2022/06/29 11:36:42;;;;;;;4.30;3.75;;;;;;;28.28;46.94;100585.53;5920450;29;20616;-87
2022/06/29 11:39:45;;;;;;;3.70;3.40;;;;;;;28.11;48.62;100572.16;5928112;29;20059;-87
2022/06/29 11:43:07;;;;;;;4.85;3.60;;;;;;;28.08;47.55;100580.63;5927283;29;20054;-89
2022/06/29 11:46:22;;;;;;;3.08;2.75;;;;;;;28.26;46.01;100577.78;5926387;29;20532;-88
2022/06/29 11:49:38;;;;;;;3.05;2.50;;;;;;;28.36;44.19;100574.50;5924296;29;20051;-89
2022/06/29 11:52:40;;;;;;;3.40;2.70;;;;;;;28.56;44.52;100574.88;5925575;29;20574;-89
2022/06/29 11:55:44;;;;;;;2.53;2.25;;;;;;;28.70;43.47;100569.28;5922808;29;20076;-87
2022/06/29 11:58:51;;;;;;;3.72;3.38;;;;;;;28.76;43.20;100571.78;5930058;29;20136;-88
2022/06/29 12:01:53;;;;;;;5.00;3.65;;;;;;;28.83;46.46;100565.50;5925630;29;20379;-88
2022/06/29 12:04:59;;;;;;;4.70;3.30;;;;;;;29.03;44.47;100567.69;5926109;29;20054;-89
2022/06/29 12:08:01;;;;;;;3.13;2.90;;;;;;;29.15;44.17;100571.09;5927272;29;20048;-89
2022/06/29 12:11:03;;;;;;;5.05;3.15;;;;;;;29.31;43.87;100567.59;5924283;29;20051;-88
2022/06/29 12:14:05;;;;;;;5.70;3.33;;;;;;;29.44;42.87;100561.13;5918834;29;20051;-88
2022/06/29 12:17:09;;;;;;;3.83;3.53;;;;;;;29.58;45.27;100558.91;5918036;29;20063;-89
2022/06/29 12:20:12;;;;;;;7.20;3.40;;;;;;;29.63;43.30;100549.09;5929546;29;20415;-88
2022/06/29 12:23:34;;;;;;;3.97;3.58;;;;;;;29.77;45.15;100548.78;5922100;29;20062;-90
2022/06/29 12:26:36;;;;;;;4.45;3.60;;;;;;;30.05;43.53;100559.25;5930319;29;20066;-90
2022/06/29 12:29:39;;;;;;;3.75;3.15;;;;;;;30.21;42.86;100557.56;5931256;29;20353;-90
2022/06/29 12:32:41;;;;;;;4.10;3.70;;;;;;;30.23;42.64;100563.44;5932262;29;20071;-91
2022/06/29 12:35:43;;;;;;;4.63;3.47;;;;;;;30.35;43.62;100554.50;5928045;29;20051;-91
2022/06/29 12:38:45;;;;;;;7.93;3.03;;;;;;;30.39;42.61;100560.97;5930927;29;20137;-89
2022/06/29 12:41:47;;;;;;;3.25;2.97;;;;;;;30.47;42.64;100547.16;5928914;29;20051;-90
2022/06/29 12:44:49;;;;;;;4.53;2.83;;;;;;;30.59;42.18;100553.16;5918037;29;20206;-90
2022/06/29 12:47:51;;;;;;;2.92;2.72;;;;;;;30.73;42.31;100544.69;5941790;29;20047;-91
2022/06/29 12:50:54;;;;;;;3.92;2.60;;;;;;;30.85;40.08;100546.16;5940773;29;20039;-90
2022/06/29 12:53:56;;;;;;;2.97;2.78;;;;;;;30.96;40.70;100546.25;5928196;29;20043;-91
2022/06/29 12:56:58;;;;;;;3.25;2.95;;;;;;;31.03;42.72;100536.94;5926040;29;20055;-92
2022/06/29 13:00:00;;;;;;;3.65;2.80;;;;;;;31.22;40.75;100523.94;5924512;29;20051;-91
2022/06/29 13:03:02;;;;;;;3.30;3.00;;;;;;;31.48;41.22;100524.94;5922389;29;20247;-91
2022/06/29 13:06:09;;;;;;;3.10;2.90;;;;;;;31.66;38.70;100530.91;5914199;29;20524;-91
2022/06/29 13:09:11;;;;;;;6.65;3.30;;;;;;;31.59;39.82;100533.81;5907691;29;20044;-92
2022/06/29 13:12:13;;;;;;;5.65;3.08;;;;;;;31.72;40.73;100535.19;5901810;29;20330;-92
2022/06/29 13:15:15;;;;;;;3.00;2.70;;;;;;;31.97;40.09;100531.81;5914871;29;20058;-91
2022/06/29 13:18:18;;;;;;;2.55;2.10;;;;;;;32.10;38.17;100525.16;5919343;29;20047;-91
2022/06/29 13:21:20;;;;;;;3.00;2.20;;;;;;;32.23;37.69;100524.66;5942413;29;20060;-92
2022/06/29 13:24:23;;;;;;;3.33;2.22;;;;;;;32.23;35.34;100516.63;5925646;29;20051;-92
